createdAt,value
2016-06-30T00:00:05.173Z,79.14
2016-06-30T00:00:35.175Z,79.14
2016-06-30T00:01:05.235Z,79.11
2016-06-30T00:01:35.221Z,78.86
2016-06-30T00:02:05.235Z,78.86
2016-06-30T00:02:35.244Z,79.14
2016-06-30T00:03:05.259Z,79.05
2016-06-30T00:03:34.681Z,79.24
2016-06-30T00:04:05.287Z,78.96
2016-06-30T00:04:35.310Z,78.77
2016-06-30T00:05:05.316Z,79.53
2016-06-30T00:05:35.332Z,79.14
2016-06-30T00:06:05.364Z,79.05
2016-06-30T00:06:35.386Z,78.57
2016-06-30T00:07:05.385Z,78.92
2016-06-30T00:07:34.804Z,78.77
2016-06-30T00:08:05.415Z,78.47
2016-06-30T00:08:35.432Z,78.28
2016-06-30T00:09:05.449Z,78.72
2016-06-30T00:09:35.445Z,79.24
2016-06-30T00:10:05.483Z,79.05
2016-06-30T00:10:35.482Z,79.21
2016-06-30T00:11:05.513Z,78.92
2016-06-30T00:11:35.534Z,78.72
2016-06-30T00:12:05.541Z,78.72
2016-06-30T00:12:35.540Z,79.21
2016-06-30T00:13:05.558Z,79.3
2016-06-30T00:13:35.573Z,79.3
2016-06-30T00:14:05.596Z,79.3
2016-06-30T00:14:35.609Z,79.49
2016-06-30T00:15:05.628Z,79.39
2016-06-30T00:15:35.630Z,79.01
2016-06-30T00:16:05.649Z,79.21
2016-06-30T00:16:35.666Z,79.21
2016-06-30T00:17:05.714Z,78.72
2016-06-30T00:17:35.722Z,79.21
2016-06-30T00:18:05.720Z,79.21
2016-06-30T00:18:35.786Z,79.3
2016-06-30T00:19:05.745Z,79.44
2016-06-30T00:19:35.750Z,79.24
2016-06-30T00:20:05.800Z,79.21
2016-06-30T00:20:35.809Z,79.88
2016-06-30T00:21:05.827Z,79.49
2016-06-30T00:21:35.852Z,79.68
2016-06-30T00:22:05.843Z,79.01
2016-06-30T00:22:35.866Z,79.05
2016-06-30T00:23:05.871Z,79.34
2016-06-30T00:23:35.271Z,78.72
2016-06-30T00:24:05.898Z,79.01
2016-06-30T00:24:35.931Z,79.21
2016-06-30T00:25:05.918Z,79.39
2016-06-30T00:25:35.954Z,79.39
2016-06-30T00:26:05.955Z,78.92
2016-06-30T00:26:35.376Z,78.63
2016-06-30T00:27:05.999Z,79.01
2016-06-30T00:27:36.026Z,78.44
2016-06-30T00:28:06.049Z,78.82
2016-06-30T00:28:36.033Z,79.01
2016-06-30T00:29:06.061Z,79.21
2016-06-30T00:29:36.134Z,79.21
2016-06-30T00:30:06.085Z,79.39
2016-06-30T00:30:36.094Z,79.21
2016-06-30T00:31:06.118Z,79.11
2016-06-30T00:31:36.123Z,78.82
2016-06-30T00:32:06.153Z,78.72
2016-06-30T00:32:36.146Z,79.11
2016-06-30T00:33:06.160Z,78.63
2016-06-30T00:33:36.203Z,79.01
2016-06-30T00:34:06.201Z,78.72
2016-06-30T00:34:36.221Z,79.01
2016-06-30T00:35:06.229Z,78.92
2016-06-30T00:35:36.250Z,79.39
2016-06-30T00:36:06.278Z,79.21
2016-06-30T00:36:36.267Z,79.01
2016-06-30T00:37:06.284Z,79.78
2016-06-30T00:37:36.313Z,79.21
2016-06-30T00:38:06.326Z,79.3
2016-06-30T00:38:35.764Z,79.49
2016-06-30T00:39:06.347Z,79.21
2016-06-30T00:39:36.374Z,79.49
2016-06-30T00:40:06.432Z,79.49
2016-06-30T00:40:36.397Z,79.21
2016-06-30T00:41:06.426Z,79.49
2016-06-30T00:41:36.449Z,79.3
2016-06-30T00:42:06.439Z,79.21
2016-06-30T00:42:36.485Z,79.59
2016-06-30T00:43:06.470Z,79.21
2016-06-30T00:43:36.516Z,79.39
2016-06-30T00:44:06.524Z,79.21
2016-06-30T00:44:36.534Z,79.3
2016-06-30T00:45:06.551Z,79.21
2016-06-30T00:45:36.560Z,79.11
2016-06-30T00:46:06.590Z,79.21
2016-06-30T00:46:36.591Z,79.11
2016-06-30T00:47:06.612Z,79.78
2016-06-30T00:47:36.599Z,79.49
2016-06-30T00:48:06.635Z,79.49
2016-06-30T00:48:36.651Z,79.21
2016-06-30T00:49:06.654Z,79.11
2016-06-30T00:49:36.695Z,79.21
2016-06-30T00:50:06.082Z,79.11
2016-06-30T00:50:36.729Z,79.21
2016-06-30T00:51:06.728Z,79.21
2016-06-30T00:51:36.745Z,79.3
2016-06-30T00:52:06.746Z,79.3
2016-06-30T00:52:36.773Z,79.78
2016-06-30T00:53:06.784Z,79.3
2016-06-30T00:53:36.779Z,79.68
2016-06-30T00:54:06.794Z,79.21
2016-06-30T00:54:36.873Z,79.3
2016-06-30T00:55:06.842Z,79.21
2016-06-30T00:55:36.858Z,79.49
2016-06-30T00:56:06.875Z,79.59
2016-06-30T00:56:36.890Z,79.21
2016-06-30T00:57:06.881Z,79.88
2016-06-30T00:57:36.908Z,79.21
2016-06-30T00:58:06.927Z,79.3
2016-06-30T00:58:36.933Z,79.39
2016-06-30T00:59:06.972Z,79.11
2016-06-30T00:59:36.992Z,79.39
2016-06-30T01:00:07.054Z,79.59
2016-06-30T01:00:37.007Z,79.11
2016-06-30T01:01:07.028Z,79.21
2016-06-30T01:01:37.086Z,79.3
2016-06-30T01:02:07.053Z,78.92
2016-06-30T01:02:37.072Z,79.01
2016-06-30T01:03:07.233Z,79.01
2016-06-30T01:03:37.090Z,78.63
2016-06-30T01:04:07.142Z,78.82
2016-06-30T01:04:37.138Z,78.72
2016-06-30T01:05:07.137Z,79.21
2016-06-30T01:05:37.183Z,78.92
2016-06-30T01:06:07.181Z,78.92
2016-06-30T01:06:37.198Z,79.21
2016-06-30T01:07:07.294Z,79.11
2016-06-30T01:07:37.210Z,79.11
2016-06-30T01:08:07.227Z,79.3
2016-06-30T01:08:37.233Z,78.44
2016-06-30T01:09:07.272Z,78.53
2016-06-30T01:09:37.276Z,78.25
2016-06-30T01:10:06.737Z,78.25
2016-06-30T01:10:37.294Z,78.34
2016-06-30T01:11:07.343Z,78.25
2016-06-30T01:11:37.340Z,78.34
2016-06-30T01:12:07.362Z,78.25
2016-06-30T01:12:37.360Z,78.63
2016-06-30T01:13:07.397Z,78.44
2016-06-30T01:13:37.413Z,78.53
2016-06-30T01:14:07.419Z,78.34
2016-06-30T01:14:37.413Z,78.63
2016-06-30T01:15:07.447Z,78.34
2016-06-30T01:15:37.461Z,78.25
2016-06-30T01:16:07.483Z,78.53
2016-06-30T01:16:37.477Z,78.72
2016-06-30T01:17:07.535Z,78.82
2016-06-30T01:17:37.537Z,79.3
2016-06-30T01:18:07.540Z,79.21
2016-06-30T01:18:37.600Z,79.01
2016-06-30T01:19:07.562Z,79.11
2016-06-30T01:19:37.607Z,79.11
2016-06-30T01:20:07.583Z,79.3
2016-06-30T01:20:37.616Z,79.11
2016-06-30T01:21:07.630Z,79.21
2016-06-30T01:21:37.637Z,79.01
2016-06-30T01:22:07.668Z,79.11
2016-06-30T01:22:37.677Z,79.11
2016-06-30T01:23:07.704Z,79.11
2016-06-30T01:23:37.694Z,79.49
2016-06-30T01:24:07.722Z,79.3
2016-06-30T01:24:37.754Z,79.21
2016-06-30T01:25:07.778Z,79.11
2016-06-30T01:25:37.814Z,79.3
2016-06-30T01:26:07.774Z,79.11
2016-06-30T01:26:37.818Z,79.39
2016-06-30T01:27:07.832Z,79.21
2016-06-30T01:27:37.822Z,79.21
2016-06-30T01:28:07.840Z,79.3
2016-06-30T01:28:37.267Z,79.11
2016-06-30T01:29:07.866Z,79.59
2016-06-30T01:29:37.900Z,80.07
2016-06-30T01:30:07.897Z,79.78
2016-06-30T01:30:37.911Z,79.59
2016-06-30T01:31:07.954Z,79.88
2016-06-30T01:31:37.954Z,79.68
2016-06-30T01:32:07.965Z,79.97
2016-06-30T01:32:37.970Z,79.88
2016-06-30T01:33:08.022Z,79.88
2016-06-30T01:33:38.026Z,79.97
2016-06-30T01:34:08.016Z,79.78
2016-06-30T01:34:38.041Z,80.26
2016-06-30T01:35:08.055Z,79.97
2016-06-30T01:35:38.075Z,79.78
2016-06-30T01:36:08.078Z,79.78
2016-06-30T01:36:38.091Z,80.16
2016-06-30T01:37:08.098Z,79.88
2016-06-30T01:37:37.526Z,79.97
2016-06-30T01:38:08.143Z,79.78
2016-06-30T01:38:38.156Z,79.78
2016-06-30T01:39:08.157Z,80.45
2016-06-30T01:39:38.192Z,80.26
2016-06-30T01:40:07.652Z,79.97
2016-06-30T01:40:38.270Z,80.07
2016-06-30T01:41:08.358Z,79.88
2016-06-30T01:41:38.290Z,80.35
2016-06-30T01:42:08.303Z,80.55
2016-06-30T01:42:38.294Z,80.74
2016-06-30T01:43:08.309Z,80.55
2016-06-30T01:43:38.306Z,80.45
2016-06-30T01:44:08.326Z,80.74
2016-06-30T01:44:38.335Z,80.45
2016-06-30T01:45:08.379Z,80.55
2016-06-30T01:45:38.394Z,81.02
2016-06-30T01:46:07.189Z,80.45
2016-06-30T01:46:38.402Z,80.55
2016-06-30T01:47:07.810Z,81.12
2016-06-30T01:47:38.430Z,81.02
2016-06-30T01:48:08.445Z,81.02
2016-06-30T01:48:38.457Z,81.51
2016-06-30T01:49:08.484Z,81.02
2016-06-30T01:49:38.501Z,81.41
2016-06-30T01:50:08.514Z,81.22
2016-06-30T01:50:38.526Z,81.51
2016-06-30T01:51:08.555Z,81.31
2016-06-30T01:51:38.574Z,81.41
2016-06-30T01:52:08.572Z,81.41
2016-06-30T01:52:38.599Z,81.7
2016-06-30T01:53:08.614Z,81.6
2016-06-30T01:53:38.622Z,81.7
2016-06-30T01:54:08.633Z,81.6
2016-06-30T01:54:38.639Z,81.89
2016-06-30T01:55:08.678Z,81.41
2016-06-30T01:55:38.685Z,81.6
2016-06-30T01:56:08.706Z,81.7
2016-06-30T01:56:38.723Z,81.7
2016-06-30T01:57:08.719Z,81.7
2016-06-30T01:57:38.756Z,81.79
2016-06-30T01:58:08.767Z,81.41
2016-06-30T01:58:38.762Z,81.6
2016-06-30T01:59:08.811Z,81.31
2016-06-30T01:59:38.818Z,81.41
2016-06-30T02:00:08.808Z,81.7
2016-06-30T02:00:38.842Z,81.51
2016-06-30T02:01:08.847Z,82.08
2016-06-30T02:01:38.847Z,81.6
2016-06-30T02:02:08.897Z,81.79
2016-06-30T02:02:38.271Z,82.18
2016-06-30T02:03:08.895Z,81.41
2016-06-30T02:03:38.915Z,81.51
2016-06-30T02:04:08.928Z,82.08
2016-06-30T02:04:38.974Z,81.6
2016-06-30T02:05:08.964Z,81.79
2016-06-30T02:05:38.967Z,81.6
2016-06-30T02:06:08.992Z,81.79
2016-06-30T02:06:39.011Z,81.7
2016-06-30T02:07:09.052Z,81.89
2016-06-30T02:07:39.029Z,81.89
2016-06-30T02:08:09.054Z,82.37
2016-06-30T02:08:39.087Z,82.46
2016-06-30T02:09:09.115Z,81.98
2016-06-30T02:09:39.118Z,81.6
2016-06-30T02:10:09.135Z,81.41
2016-06-30T02:10:39.142Z,81.98
2016-06-30T02:11:09.146Z,82.27
2016-06-30T02:11:39.169Z,82.18
2016-06-30T02:12:09.170Z,81.7
2016-06-30T02:12:39.206Z,81.89
2016-06-30T02:13:09.206Z,81.98
2016-06-30T02:13:39.230Z,81.6
2016-06-30T02:14:09.286Z,81.51
2016-06-30T02:14:38.649Z,81.6
2016-06-30T02:15:09.277Z,82.08
2016-06-30T02:15:39.289Z,82.27
2016-06-30T02:16:09.310Z,82.27
2016-06-30T02:16:39.344Z,82.46
2016-06-30T02:17:09.335Z,82.18
2016-06-30T02:17:39.350Z,82.46
2016-06-30T02:18:09.356Z,82.37
2016-06-30T02:18:39.387Z,82.46
2016-06-30T02:19:09.400Z,82.27
2016-06-30T02:19:39.403Z,82.08
2016-06-30T02:20:09.464Z,81.98
2016-06-30T02:20:39.445Z,82.46
2016-06-30T02:21:09.449Z,82.27
2016-06-30T02:21:39.486Z,82.08
2016-06-30T02:22:09.471Z,81.98
2016-06-30T02:22:38.929Z,82.18
2016-06-30T02:23:09.565Z,81.98
2016-06-30T02:23:39.515Z,81.98
2016-06-30T02:24:09.547Z,81.98
2016-06-30T02:24:39.577Z,82.37
2016-06-30T02:25:08.978Z,82.37
2016-06-30T02:25:39.604Z,82.27
2016-06-30T02:26:09.825Z,82.37
2016-06-30T02:26:39.613Z,82.37
2016-06-30T02:27:09.646Z,82.08
2016-06-30T02:27:39.675Z,82.27
2016-06-30T02:28:09.657Z,82.27
2016-06-30T02:28:39.671Z,82.56
2016-06-30T02:29:09.690Z,82.56
2016-06-30T02:29:39.712Z,81.98
2016-06-30T02:30:09.718Z,82.18
2016-06-30T02:30:39.747Z,82.27
2016-06-30T02:31:09.754Z,82.37
2016-06-30T02:31:39.766Z,82.46
2016-06-30T02:32:09.787Z,82.37
2016-06-30T02:32:39.826Z,82.56
2016-06-30T02:33:09.825Z,82.37
2016-06-30T02:33:39.844Z,82.46
2016-06-30T02:34:09.840Z,82.37
2016-06-30T02:34:39.860Z,82.37
2016-06-30T02:35:09.919Z,82.37
2016-06-30T02:35:39.907Z,82.85
2016-06-30T02:36:09.927Z,82.94
2016-06-30T02:36:39.922Z,82.75
2016-06-30T02:37:09.931Z,82.27
2016-06-30T02:37:39.946Z,82.85
2016-06-30T02:38:09.357Z,83.23
2016-06-30T02:38:39.995Z,83.04
2016-06-30T02:39:10.015Z,83.04
2016-06-30T02:39:40.018Z,82.75
2016-06-30T02:40:10.006Z,83.42
2016-06-30T02:40:40.049Z,83.52
2016-06-30T02:41:10.065Z,83.14
2016-06-30T02:41:40.051Z,83.04
2016-06-30T02:42:10.125Z,83.42
2016-06-30T02:42:40.107Z,83.33
2016-06-30T02:43:10.140Z,82.94
2016-06-30T02:43:40.132Z,83.52
2016-06-30T02:44:10.145Z,83.42
2016-06-30T02:44:40.160Z,83.23
2016-06-30T02:45:10.175Z,83.42
2016-06-30T02:45:40.190Z,83.33
2016-06-30T02:46:10.187Z,82.94
2016-06-30T02:46:39.625Z,83.33
2016-06-30T02:47:10.262Z,82.94
2016-06-30T02:47:40.251Z,83.33
2016-06-30T02:48:10.320Z,83.14
2016-06-30T02:48:40.283Z,83.14
2016-06-30T02:49:10.304Z,83.23
2016-06-30T02:49:40.313Z,83.71
2016-06-30T02:50:10.338Z,83.23
2016-06-30T02:50:40.343Z,83.81
2016-06-30T02:51:10.360Z,84.09
2016-06-30T02:51:40.372Z,83.81
2016-06-30T02:52:10.373Z,84.09
2016-06-30T02:52:40.421Z,83.52
2016-06-30T02:53:10.409Z,83.61
2016-06-30T02:53:40.431Z,83.71
2016-06-30T02:54:10.444Z,83.61
2016-06-30T02:54:40.454Z,83.91
2016-06-30T02:55:10.493Z,84
2016-06-30T02:55:40.506Z,84.09
2016-06-30T02:56:10.533Z,84.09
2016-06-30T02:56:40.559Z,84.09
2016-06-30T02:57:10.529Z,83.91
2016-06-30T02:57:39.964Z,83.91
2016-06-30T02:58:10.568Z,83.91
2016-06-30T02:58:40.574Z,83.91
2016-06-30T02:59:10.597Z,83.91
2016-06-30T02:59:40.619Z,83.71
2016-06-30T03:00:10.627Z,84.48
2016-06-30T03:00:40.640Z,84.28
2016-06-30T03:01:10.654Z,84.28
2016-06-30T03:01:40.685Z,84.58
2016-06-30T03:02:10.686Z,84.09
2016-06-30T03:02:40.709Z,84.28
2016-06-30T03:03:10.726Z,84.48
2016-06-30T03:03:40.739Z,84.28
2016-06-30T03:04:10.748Z,84.19
2016-06-30T03:04:40.761Z,84.38
2016-06-30T03:05:10.766Z,84.77
2016-06-30T03:05:40.793Z,84.19
2016-06-30T03:06:10.799Z,84.77
2016-06-30T03:06:40.829Z,84.28
2016-06-30T03:07:10.831Z,84.28
2016-06-30T03:07:40.925Z,84.48
2016-06-30T03:08:10.919Z,84.28
2016-06-30T03:08:40.307Z,84.48
2016-06-30T03:09:10.936Z,84.48
2016-06-30T03:09:40.297Z,84.67
2016-06-30T03:10:10.949Z,84.86
2016-06-30T03:10:40.940Z,84.38
2016-06-30T03:11:10.962Z,85.05
2016-06-30T03:11:40.357Z,84.38
2016-06-30T03:12:11.007Z,84.67
2016-06-30T03:12:41.008Z,84.58
2016-06-30T03:13:11.014Z,84.38
2016-06-30T03:13:41.023Z,84.95
2016-06-30T03:14:11.058Z,84.86
2016-06-30T03:14:41.062Z,84.48
2016-06-30T03:15:11.083Z,84.48
2016-06-30T03:15:40.506Z,84.38
2016-06-30T03:16:11.117Z,84.28
2016-06-30T03:16:41.114Z,85.05
2016-06-30T03:17:11.175Z,84.86
2016-06-30T03:17:41.164Z,85.15
2016-06-30T03:18:11.189Z,84.67
2016-06-30T03:18:40.588Z,85.15
2016-06-30T03:19:11.210Z,84.95
2016-06-30T03:19:41.229Z,85.15
2016-06-30T03:20:11.242Z,85.15
2016-06-30T03:20:41.254Z,85.15
2016-06-30T03:21:11.273Z,85.05
2016-06-30T03:21:41.397Z,85.25
2016-06-30T03:22:10.939Z,84.67
2016-06-30T03:22:41.431Z,84.77
2016-06-30T03:23:11.600Z,85.05
2016-06-30T03:23:41.454Z,85.15
2016-06-30T03:24:11.389Z,85.15
2016-06-30T03:24:41.358Z,85.05
2016-06-30T03:25:11.392Z,85.25
2016-06-30T03:25:41.394Z,85.15
2016-06-30T03:26:11.432Z,84.95
2016-06-30T03:26:41.433Z,85.05
2016-06-30T03:27:11.435Z,85.25
2016-06-30T03:27:41.485Z,85.05
2016-06-30T03:28:11.483Z,85.15
2016-06-30T03:28:41.492Z,84.86
2016-06-30T03:29:10.905Z,85.05
2016-06-30T03:29:41.524Z,85.25
2016-06-30T03:30:11.559Z,84.95
2016-06-30T03:30:41.557Z,84.95
2016-06-30T03:31:11.570Z,85.05
2016-06-30T03:31:41.593Z,85.05
2016-06-30T03:32:11.605Z,85.25
2016-06-30T03:32:41.620Z,85.25
2016-06-30T03:33:11.633Z,85.53
2016-06-30T03:33:41.655Z,85.72
2016-06-30T03:34:11.658Z,85.34
2016-06-30T03:34:41.695Z,85.34
2016-06-30T03:35:11.690Z,85.25
2016-06-30T03:35:41.732Z,84.95
2016-06-30T03:36:11.712Z,85.34
2016-06-30T03:36:41.781Z,85.53
2016-06-30T03:37:11.767Z,85.63
2016-06-30T03:37:41.770Z,85.34
2016-06-30T03:38:11.189Z,85.53
2016-06-30T03:38:41.818Z,85.25
2016-06-30T03:39:11.806Z,85.44
2016-06-30T03:39:41.825Z,85.34
2016-06-30T03:40:11.873Z,85.05
2016-06-30T03:40:41.866Z,85.34
2016-06-30T03:41:11.927Z,85.53
2016-06-30T03:41:41.886Z,85.63
2016-06-30T03:42:11.908Z,85.53
2016-06-30T03:42:41.917Z,85.53
2016-06-30T03:43:11.971Z,85.63
2016-06-30T03:43:41.948Z,85.82
2016-06-30T03:44:11.962Z,85.72
2016-06-30T03:44:41.980Z,85.82
2016-06-30T03:45:12.026Z,85.44
2016-06-30T03:45:41.995Z,85.63
2016-06-30T03:46:12.052Z,85.34
2016-06-30T03:46:42.040Z,85.92
2016-06-30T03:47:12.052Z,85.63
2016-06-30T03:47:42.081Z,85.53
2016-06-30T03:48:12.091Z,86.01
2016-06-30T03:48:42.089Z,85.63
2016-06-30T03:49:12.179Z,85.82
2016-06-30T03:49:42.147Z,85.82
2016-06-30T03:50:12.152Z,85.34
2016-06-30T03:50:42.159Z,85.82
2016-06-30T03:51:12.184Z,85.82
2016-06-30T03:51:42.198Z,85.82
2016-06-30T03:52:12.200Z,86.3
2016-06-30T03:52:42.236Z,86.3
2016-06-30T03:53:12.274Z,86.21
2016-06-30T03:53:42.255Z,86.3
2016-06-30T03:54:12.272Z,86.3
2016-06-30T03:54:42.275Z,86.01
2016-06-30T03:55:12.328Z,86.11
2016-06-30T03:55:42.338Z,86.01
2016-06-30T03:56:12.328Z,86.3
2016-06-30T03:56:42.341Z,86.01
2016-06-30T03:57:12.367Z,86.01
2016-06-30T03:57:42.383Z,85.82
2016-06-30T03:58:12.412Z,86.01
2016-06-30T03:58:42.386Z,85.92
2016-06-30T03:59:12.410Z,86.01
2016-06-30T03:59:42.435Z,85.92
2016-06-30T04:00:12.443Z,85.72
2016-06-30T04:00:42.445Z,86.21
2016-06-30T04:01:12.481Z,86.21
2016-06-30T04:01:42.513Z,86.01
2016-06-30T04:02:12.519Z,86.11
2016-06-30T04:02:42.512Z,86.01
2016-06-30T04:03:12.559Z,86.21
2016-06-30T04:03:42.558Z,85.82
2016-06-30T04:04:12.571Z,86.01
2016-06-30T04:04:42.640Z,86.01
2016-06-30T04:05:12.588Z,85.72
2016-06-30T04:05:42.019Z,86.11
2016-06-30T04:06:12.654Z,86.21
2016-06-30T04:06:42.658Z,85.63
2016-06-30T04:07:12.662Z,86.01
2016-06-30T04:07:42.687Z,85.63
2016-06-30T04:08:12.699Z,86.21
2016-06-30T04:08:42.722Z,86.3
2016-06-30T04:09:12.725Z,86.88
2016-06-30T04:09:42.741Z,86.88
2016-06-30T04:10:12.752Z,86.01
2016-06-30T04:10:42.770Z,86.58
2016-06-30T04:11:12.806Z,86.4
2016-06-30T04:11:42.813Z,86.3
2016-06-30T04:12:12.823Z,86.49
2016-06-30T04:12:42.844Z,86.68
2016-06-30T04:13:12.850Z,86.78
2016-06-30T04:13:42.890Z,86.4
2016-06-30T04:14:12.885Z,86.49
2016-06-30T04:14:42.894Z,87.35
2016-06-30T04:15:12.913Z,86.88
2016-06-30T04:15:42.915Z,87.35
2016-06-30T04:16:12.951Z,86.78
2016-06-30T04:16:42.970Z,87.16
2016-06-30T04:17:12.967Z,86.49
2016-06-30T04:17:43.015Z,86.68
2016-06-30T04:18:13.026Z,87.35
2016-06-30T04:18:43.007Z,87.16
2016-06-30T04:19:13.030Z,86.97
2016-06-30T04:19:43.056Z,87.07
2016-06-30T04:20:13.066Z,86.97
2016-06-30T04:20:43.097Z,87.16
2016-06-30T04:21:13.099Z,87.07
2016-06-30T04:21:43.113Z,87.16
2016-06-30T04:22:13.110Z,87.16
2016-06-30T04:22:43.125Z,87.74
2016-06-30T04:23:13.152Z,87.45
2016-06-30T04:23:43.195Z,87.16
2016-06-30T04:24:13.185Z,87.35
2016-06-30T04:24:43.202Z,87.84
2016-06-30T04:25:13.225Z,87.74
2016-06-30T04:25:43.238Z,87.74
2016-06-30T04:26:13.241Z,87.64
2016-06-30T04:26:43.248Z,87.74
2016-06-30T04:27:13.278Z,88.12
2016-06-30T04:27:43.286Z,87.74
2016-06-30T04:28:12.091Z,87.74
2016-06-30T04:28:43.291Z,87.74
2016-06-30T04:29:13.329Z,88.22
2016-06-30T04:29:43.371Z,88.12
2016-06-30T04:30:13.355Z,88.12
2016-06-30T04:30:43.415Z,88.41
2016-06-30T04:31:13.388Z,88.7
2016-06-30T04:31:43.404Z,88.6
2016-06-30T04:32:13.426Z,88.41
2016-06-30T04:32:43.440Z,88.6
2016-06-30T04:33:13.442Z,87.93
2016-06-30T04:33:43.517Z,88.22
2016-06-30T04:34:13.472Z,88.7
2016-06-30T04:34:43.491Z,88.89
2016-06-30T04:35:12.926Z,89.08
2016-06-30T04:35:43.533Z,88.79
2016-06-30T04:36:13.598Z,88.51
2016-06-30T04:36:43.577Z,88.51
2016-06-30T04:37:13.623Z,88.79
2016-06-30T04:37:43.594Z,88.22
2016-06-30T04:38:13.594Z,88.65
2016-06-30T04:38:43.625Z,88.41
2016-06-30T04:39:13.661Z,88.65
2016-06-30T04:39:43.642Z,88.6
2016-06-30T04:40:13.666Z,88.27
2016-06-30T04:40:43.678Z,88.75
2016-06-30T04:41:13.676Z,88.17
2016-06-30T04:41:43.706Z,88.65
2016-06-30T04:42:13.709Z,89.23
2016-06-30T04:42:43.770Z,90.47
2016-06-30T04:43:13.764Z,90.28
2016-06-30T04:43:43.772Z,90.76
2016-06-30T04:44:13.814Z,90.23
2016-06-30T04:44:43.804Z,90.91
2016-06-30T04:45:13.825Z,90.81
2016-06-30T04:45:43.829Z,91
2016-06-30T04:46:13.841Z,91.67
2016-06-30T04:46:43.873Z,91.39
2016-06-30T04:47:13.897Z,91.96
2016-06-30T04:47:43.897Z,91.67
2016-06-30T04:48:13.930Z,92.35
2016-06-30T04:48:43.918Z,92.82
2016-06-30T04:49:13.928Z,92.35
2016-06-30T04:49:43.954Z,93.3
2016-06-30T04:50:12.759Z,92.63
2016-06-30T04:50:43.992Z,92.82
2016-06-30T04:51:14.024Z,92.44
2016-06-30T04:51:44.021Z,92.25
2016-06-30T04:52:13.457Z,92.54
2016-06-30T04:52:44.045Z,92.35
2016-06-30T04:53:14.067Z,92.25
2016-06-30T04:53:44.081Z,92.44
2016-06-30T04:54:14.087Z,93.02
2016-06-30T04:54:44.098Z,93.11
2016-06-30T04:55:14.113Z,93.3
2016-06-30T04:55:44.146Z,93.11
2016-06-30T04:56:13.551Z,93.49
2016-06-30T04:56:44.165Z,93.11
2016-06-30T04:57:13.563Z,93.59
2016-06-30T04:57:44.205Z,93.49
2016-06-30T04:58:13.581Z,93.3
2016-06-30T04:58:44.215Z,93.11
2016-06-30T04:59:14.248Z,92.92
2016-06-30T04:59:44.235Z,93.4
2016-06-30T05:00:14.267Z,93.11
2016-06-30T05:00:44.296Z,93.49
2016-06-30T05:01:14.294Z,93.21
2016-06-30T05:01:44.315Z,93.02
2016-06-30T05:02:14.343Z,93.3
2016-06-30T05:02:44.372Z,93.11
2016-06-30T05:03:14.386Z,93.88
2016-06-30T05:03:44.382Z,93.4
2016-06-30T05:04:14.385Z,93.4
2016-06-30T05:04:44.400Z,93.11
2016-06-30T05:05:14.410Z,93.11
2016-06-30T05:05:43.818Z,93.11
2016-06-30T05:06:14.445Z,93.3
2016-06-30T05:06:44.462Z,93.49
2016-06-30T05:07:14.500Z,93.02
2016-06-30T05:07:44.488Z,93.21
2016-06-30T05:08:14.509Z,93.11
2016-06-30T05:08:44.517Z,93.11
2016-06-30T05:09:14.540Z,93.02
2016-06-30T05:09:44.564Z,93.3
2016-06-30T05:10:14.583Z,93.69
2016-06-30T05:10:44.579Z,93.88
2016-06-30T05:11:14.613Z,93.3
2016-06-30T05:11:44.648Z,93.21
2016-06-30T05:12:14.624Z,93.3
2016-06-30T05:12:44.650Z,92.63
2016-06-30T05:13:14.657Z,92.82
2016-06-30T05:13:44.661Z,93.59
2016-06-30T05:14:14.698Z,93.11
2016-06-30T05:14:44.691Z,92.73
2016-06-30T05:15:14.726Z,93.4
2016-06-30T05:15:44.755Z,92.82
2016-06-30T05:16:14.725Z,93.02
2016-06-30T05:16:44.758Z,92.73
2016-06-30T05:17:14.775Z,92.82
2016-06-30T05:17:43.580Z,93.21
2016-06-30T05:18:14.804Z,92.73
2016-06-30T05:18:44.814Z,92.73
2016-06-30T05:19:14.835Z,92.82
2016-06-30T05:19:44.862Z,92.92
2016-06-30T05:20:14.854Z,93.02
2016-06-30T05:20:44.898Z,92.73
2016-06-30T05:21:14.925Z,92.92
2016-06-30T05:21:44.924Z,93.02
2016-06-30T05:22:14.917Z,93.49
2016-06-30T05:22:44.951Z,93.3
2016-06-30T05:23:14.954Z,92.92
2016-06-30T05:23:44.991Z,92.25
2016-06-30T05:24:14.974Z,92.44
2016-06-30T05:24:44.999Z,92.54
2016-06-30T05:25:15.040Z,92.2
2016-06-30T05:25:45.035Z,92.25
2016-06-30T05:26:15.072Z,92.54
2016-06-30T05:26:45.062Z,92.49
2016-06-30T05:27:15.067Z,91.86
2016-06-30T05:27:45.072Z,91.82
2016-06-30T05:28:15.106Z,91.43
2016-06-30T05:28:45.138Z,91.19
2016-06-30T05:29:15.138Z,91.63
2016-06-30T05:29:45.163Z,91.77
2016-06-30T05:30:15.164Z,91.49
2016-06-30T05:30:45.179Z,91.67
2016-06-30T05:31:15.186Z,91.91
2016-06-30T05:31:45.202Z,92.63
2016-06-30T05:32:15.229Z,92.3
2016-06-30T05:32:45.237Z,91.91
2016-06-30T05:33:15.260Z,91.82
2016-06-30T05:33:45.266Z,91.91
2016-06-30T05:34:15.293Z,92.49
2016-06-30T05:34:45.291Z,92.01
2016-06-30T05:35:15.319Z,91.91
2016-06-30T05:35:44.807Z,92.77
2016-06-30T05:36:15.374Z,92.87
2016-06-30T05:36:45.387Z,92.39
2016-06-30T05:37:14.885Z,92.58
2016-06-30T05:37:44.819Z,92.87
2016-06-30T05:38:15.412Z,93.54
2016-06-30T05:38:45.419Z,93.35
2016-06-30T05:39:15.442Z,92.77
2016-06-30T05:39:45.456Z,93.06
2016-06-30T05:40:15.467Z,93.16
2016-06-30T05:40:45.476Z,93.26
2016-06-30T05:41:15.487Z,93.44
2016-06-30T05:41:44.892Z,93.35
2016-06-30T05:42:15.539Z,93.35
2016-06-30T05:42:45.544Z,93.73
2016-06-30T05:43:15.545Z,93.4
2016-06-30T05:43:45.570Z,93.4
2016-06-30T05:44:15.624Z,93.21
2016-06-30T05:44:45.611Z,92.82
2016-06-30T05:45:15.663Z,93.11
2016-06-30T05:45:45.638Z,93.21
2016-06-30T05:46:15.690Z,93.4
2016-06-30T05:46:45.670Z,93.21
2016-06-30T05:47:15.068Z,93.01
2016-06-30T05:47:45.692Z,93.3
2016-06-30T05:48:15.747Z,93.4
2016-06-30T05:48:45.727Z,92.91
2016-06-30T05:49:15.748Z,92.91
2016-06-30T05:49:45.759Z,92.82
2016-06-30T05:50:15.762Z,93.21
2016-06-30T05:50:45.788Z,92.82
2016-06-30T05:51:15.805Z,92.63
2016-06-30T05:51:45.842Z,92.54
2016-06-30T05:52:15.234Z,92.44
2016-06-30T05:52:45.835Z,92.24
2016-06-30T05:53:15.869Z,92.24
2016-06-30T05:53:45.897Z,92.54
2016-06-30T05:54:15.905Z,91.86
2016-06-30T05:54:45.917Z,91.96
2016-06-30T05:55:15.946Z,91.57
2016-06-30T05:55:45.960Z,91.62
2016-06-30T05:56:15.388Z,92
2016-06-30T05:56:45.998Z,91.33
2016-06-30T05:57:15.989Z,91.62
2016-06-30T05:57:46.012Z,90.95
2016-06-30T05:58:16.031Z,91.05
2016-06-30T05:58:46.066Z,90.47
2016-06-30T05:59:16.059Z,90.47
2016-06-30T05:59:46.054Z,90.37
2016-06-30T06:00:16.086Z,90.56
2016-06-30T06:00:46.099Z,90.37
2016-06-30T06:01:16.108Z,90.47
2016-06-30T06:01:46.136Z,90.56
2016-06-30T06:02:16.135Z,91.24
2016-06-30T06:02:46.168Z,91.24
2016-06-30T06:03:16.195Z,90.37
2016-06-30T06:03:46.174Z,90.56
2016-06-30T06:04:16.264Z,90.75
2016-06-30T06:04:46.253Z,90.95
2016-06-30T06:05:16.233Z,90.47
2016-06-30T06:05:46.250Z,90.85
2016-06-30T06:06:16.267Z,90.37
2016-06-30T06:06:46.259Z,90.75
2016-06-30T06:07:16.322Z,90.47
2016-06-30T06:07:46.330Z,90.85
2016-06-30T06:08:16.316Z,90.33
2016-06-30T06:08:46.341Z,90.47
2016-06-30T06:09:16.382Z,90.28
2016-06-30T06:09:46.381Z,90.75
2016-06-30T06:10:16.402Z,90.61
2016-06-30T06:10:46.415Z,90.47
2016-06-30T06:11:16.429Z,90.28
2016-06-30T06:11:46.449Z,89.79
2016-06-30T06:12:16.470Z,89.79
2016-06-30T06:12:46.504Z,89.79
2016-06-30T06:13:16.499Z,89.79
2016-06-30T06:13:46.501Z,89.99
2016-06-30T06:14:16.547Z,89.32
2016-06-30T06:14:46.545Z,89.41
2016-06-30T06:15:16.537Z,89.51
2016-06-30T06:15:46.538Z,89.61
2016-06-30T06:16:16.561Z,89.51
2016-06-30T06:16:46.580Z,89.22
2016-06-30T06:17:16.598Z,89.12
2016-06-30T06:17:46.614Z,89.32
2016-06-30T06:18:16.693Z,89.12
2016-06-30T06:18:46.640Z,89.12
2016-06-30T06:19:16.680Z,89.03
2016-06-30T06:19:46.676Z,88.93
2016-06-30T06:20:16.707Z,89.51
2016-06-30T06:20:46.727Z,89.12
2016-06-30T06:21:16.737Z,89.32
2016-06-30T06:21:46.768Z,89.41
2016-06-30T06:22:16.764Z,89.51
2016-06-30T06:22:46.777Z,89.41
2016-06-30T06:23:16.788Z,89.12
2016-06-30T06:23:46.817Z,89.41
2016-06-30T06:24:16.821Z,89.03
2016-06-30T06:24:46.853Z,88.74
2016-06-30T06:25:16.855Z,88.74
2016-06-30T06:25:46.886Z,88.35
2016-06-30T06:26:16.890Z,88.84
2016-06-30T06:26:46.893Z,88.74
2016-06-30T06:27:16.925Z,88.93
2016-06-30T06:27:46.905Z,89.22